Chicago, Illinois
Traffic Map
Current Weather Conditions
Chicago, Illinois
Few Clouds
Few Clouds
22°
Feels Like: 22°
Wind Chill: 22° Ceiling: Unl
Heat Index: 22° Visibility: 10mi
Dew Point: Wind: 25mph
Humidity: 37% Direction: 10° (N)
Pressure: 30.08in Gusts: 35mph
Raw Report DataKMDW 281951Z 01022G30KT 10SM FEW050 FEW300 22/07 A3008 RMK AO2 PK WND 02030/1951 SLP179 T02220067
Traffic Incident Summary
Active as of:
Severity:
Category:
InformationThere was an issue retrieving the traffic information for this location. Please try a different location or try again shortly.
Advertisements
Track Severe Weather on mobile